Terminal Aerodrome Forecast
Issued by NWS Rapid City, SD

Home | Current Version | Previous Version | Text Only | Print | Product List | Glossary Off
Versions: 1 2 3 4 5 6 7 8 9 10 11 12 13 14 15 16 17

000
FTUS43 KUNR 241151 CCA
TAFRAP
TAF COR
KRAP 241151Z 2412/2512 34028G38KT 4SM -SN SCT008 OVC015
     FM241400 34024G35KT P6SM OVC025
     FM241900 35015KT P6SM BKN035
     FM250000 32008KT P6SM SCT100=

USA.gov is the U.S. government's official web portal to all federal, state and local government web resources and services.